sensor_id;sensor_type;location;lat;lon;timestamp;temperature;humidity
37378;DHT22;23248;48.120;14.854;2022-11-02T00:00:20;10.80;99.90
37378;DHT22;23248;48.120;14.854;2022-11-02T00:02:46;10.70;99.90
37378;DHT22;23248;48.120;14.854;2022-11-02T00:05:12;10.70;99.90
37378;DHT22;23248;48.120;14.854;2022-11-02T00:07:38;10.70;99.90
37378;DHT22;23248;48.120;14.854;2022-11-02T00:10:04;10.70;99.90
37378;DHT22;23248;48.120;14.854;2022-11-02T00:12:30;10.70;99.90
37378;DHT22;23248;48.120;14.854;2022-11-02T00:14:55;10.70;99.90
37378;DHT22;23248;48.120;14.854;2022-11-02T00:17:21;10.70;99.90
37378;DHT22;23248;48.120;14.854;2022-11-02T00:19:47;10.70;99.90
37378;DHT22;23248;48.120;14.854;2022-11-02T00:22:12;10.70;99.90
37378;DHT22;23248;48.120;14.854;2022-11-02T00:24:38;10.70;99.90
37378;DHT22;23248;48.120;14.854;2022-11-02T00:27:04;10.70;99.90
37378;DHT22;23248;48.120;14.854;2022-11-02T00:29:29;10.70;99.90
37378;DHT22;23248;48.120;14.854;2022-11-02T00:31:55;10.70;99.90
37378;DHT22;23248;48.120;14.854;2022-11-02T00:34:21;10.70;99.90
37378;DHT22;23248;48.120;14.854;2022-11-02T00:36:46;10.70;99.90
37378;DHT22;23248;48.120;14.854;2022-11-02T00:39:12;10.70;99.90
37378;DHT22;23248;48.120;14.854;2022-11-02T00:41:37;10.70;99.90
37378;DHT22;23248;48.120;14.854;2022-11-02T00:44:03;10.70;99.90
37378;DHT22;23248;48.120;14.854;2022-11-02T00:46:29;10.80;99.90
37378;DHT22;23248;48.120;14.854;2022-11-02T00:48:54;10.80;99.90
37378;DHT22;23248;48.120;14.854;2022-11-02T00:51:20;10.80;99.90
37378;DHT22;23248;48.120;14.854;2022-11-02T00:53:45;10.80;99.90
37378;DHT22;23248;48.120;14.854;2022-11-02T00:56:11;10.80;99.90
37378;DHT22;23248;48.120;14.854;2022-11-02T00:58:36;10.70;99.90
37378;DHT22;23248;48.120;14.854;2022-11-02T01:01:05;10.70;99.90
37378;DHT22;23248;48.120;14.854;2022-11-02T01:03:31;10.70;99.90
37378;DHT22;23248;48.120;14.854;2022-11-02T01:05:57;10.70;99.90
37378;DHT22;23248;48.120;14.854;2022-11-02T01:08:22;10.60;99.90
37378;DHT22;23248;48.120;14.854;2022-11-02T01:10:48;10.70;99.90
37378;DHT22;23248;48.120;14.854;2022-11-02T01:13:14;10.70;99.90
37378;DHT22;23248;48.120;14.854;2022-11-02T01:15:39;10.70;99.90
37378;DHT22;23248;48.120;14.854;2022-11-02T01:18:05;10.70;99.90
37378;DHT22;23248;48.120;14.854;2022-11-02T01:20:31;10.70;99.90
37378;DHT22;23248;48.120;14.854;2022-11-02T01:22:56;10.70;99.90
37378;DHT22;23248;48.120;14.854;2022-11-02T01:25:23;10.70;99.90
37378;DHT22;23248;48.120;14.854;2022-11-02T01:27:49;10.70;99.90
37378;DHT22;23248;48.120;14.854;2022-11-02T01:30:15;10.80;99.90
37378;DHT22;23248;48.120;14.854;2022-11-02T01:32:41;10.80;99.90
37378;DHT22;23248;48.120;14.854;2022-11-02T01:35:06;10.90;99.90
37378;DHT22;23248;48.120;14.854;2022-11-02T01:37:32;10.90;99.90
37378;DHT22;23248;48.120;14.854;2022-11-02T01:39:58;10.90;99.90
37378;DHT22;23248;48.120;14.854;2022-11-02T01:42:24;10.90;99.90
37378;DHT22;23248;48.120;14.854;2022-11-02T01:44:50;10.90;99.90
37378;DHT22;23248;48.120;14.854;2022-11-02T01:47:24;10.90;99.90
37378;DHT22;23248;48.120;14.854;2022-11-02T01:49:52;10.90;99.90
37378;DHT22;23248;48.120;14.854;2022-11-02T01:52:21;11.00;99.90
37378;DHT22;23248;48.120;14.854;2022-11-02T01:54:54;11.00;99.90
37378;DHT22;23248;48.120;14.854;2022-11-02T01:57:20;11.00;99.90
37378;DHT22;23248;48.120;14.854;2022-11-02T01:59:52;11.00;99.90
37378;DHT22;23248;48.120;14.854;2022-11-02T02:02:20;11.00;99.90
37378;DHT22;23248;48.120;14.854;2022-11-02T02:04:47;11.00;99.90
37378;DHT22;23248;48.120;14.854;2022-11-02T02:07:13;11.10;99.90
37378;DHT22;23248;48.120;14.854;2022-11-02T02:09:40;11.10;99.90
37378;DHT22;23248;48.120;14.854;2022-11-02T02:12:05;11.10;99.90
37378;DHT22;23248;48.120;14.854;2022-11-02T02:14:31;11.00;99.90
37378;DHT22;23248;48.120;14.854;2022-11-02T02:19:37;11.00;99.90
37378;DHT22;23248;48.120;14.854;2022-11-02T02:24:50;11.00;99.90
37378;DHT22;23248;48.120;14.854;2022-11-02T02:27:22;11.10;99.90
37378;DHT22;23248;48.120;14.854;2022-11-02T02:29:56;11.00;99.90
37378;DHT22;23248;48.120;14.854;2022-11-02T02:32:40;11.10;99.90
37378;DHT22;23248;48.120;14.854;2022-11-02T02:38:03;11.10;99.90
37378;DHT22;23248;48.120;14.854;2022-11-02T02:40:35;11.10;99.90
37378;DHT22;23248;48.120;14.854;2022-11-02T02:45:36;11.10;99.90
37378;DHT22;23248;48.120;14.854;2022-11-02T02:50:29;11.00;99.90
37378;DHT22;23248;48.120;14.854;2022-11-02T02:53:01;11.00;99.90
37378;DHT22;23248;48.120;14.854;2022-11-02T02:55:31;11.10;99.90
37378;DHT22;23248;48.120;14.854;2022-11-02T02:58:00;11.10;99.90
37378;DHT22;23248;48.120;14.854;2022-11-02T03:00:27;11.10;99.90
37378;DHT22;23248;48.120;14.854;2022-11-02T03:02:54;11.10;99.90
37378;DHT22;23248;48.120;14.854;2022-11-02T03:05:33;11.20;99.90
37378;DHT22;23248;48.120;14.854;2022-11-02T03:08:07;11.20;99.90
37378;DHT22;23248;48.120;14.854;2022-11-02T03:10:40;11.10;99.90
37378;DHT22;23248;48.120;14.854;2022-11-02T03:13:17;11.10;99.90
37378;DHT22;23248;48.120;14.854;2022-11-02T03:15:55;11.10;99.90
37378;DHT22;23248;48.120;14.854;2022-11-02T03:18:31;11.00;99.90
37378;DHT22;23248;48.120;14.854;2022-11-02T03:23:33;10.90;99.90
37378;DHT22;23248;48.120;14.854;2022-11-02T03:28:35;10.70;99.90
37378;DHT22;23248;48.120;14.854;2022-11-02T03:31:08;10.60;99.90
37378;DHT22;23248;48.120;14.854;2022-11-02T03:33:37;10.50;99.90
37378;DHT22;23248;48.120;14.854;2022-11-02T03:36:05;10.40;99.90
37378;DHT22;23248;48.120;14.854;2022-11-02T03:38:39;10.40;99.90
37378;DHT22;23248;48.120;14.854;2022-11-02T03:41:07;10.40;99.90
37378;DHT22;23248;48.120;14.854;2022-11-02T03:43:34;10.30;99.90
37378;DHT22;23248;48.120;14.854;2022-11-02T03:46:01;10.30;99.90
37378;DHT22;23248;48.120;14.854;2022-11-02T03:48:35;10.20;99.90
37378;DHT22;23248;48.120;14.854;2022-11-02T03:51:06;10.10;99.90
37378;DHT22;23248;48.120;14.854;2022-11-02T03:53:41;10.00;99.90
37378;DHT22;23248;48.120;14.854;2022-11-02T03:56:11;9.90;99.90
37378;DHT22;23248;48.120;14.854;2022-11-02T03:58:39;9.80;99.90
37378;DHT22;23248;48.120;14.854;2022-11-02T04:01:04;9.80;99.90
37378;DHT22;23248;48.120;14.854;2022-11-02T04:03:32;9.80;99.90
37378;DHT22;23248;48.120;14.854;2022-11-02T04:05:58;9.80;99.90
37378;DHT22;23248;48.120;14.854;2022-11-02T04:08:26;9.70;99.90
37378;DHT22;23248;48.120;14.854;2022-11-02T04:10:54;9.70;99.90
37378;DHT22;23248;48.120;14.854;2022-11-02T04:13:38;9.70;99.90
37378;DHT22;23248;48.120;14.854;2022-11-02T04:16:22;9.70;99.90
37378;DHT22;23248;48.120;14.854;2022-11-02T04:18:48;9.60;99.90
37378;DHT22;23248;48.120;14.854;2022-11-02T04:21:32;9.60;99.90
37378;DHT22;23248;48.120;14.854;2022-11-02T04:23:58;9.60;99.90
37378;DHT22;23248;48.120;14.854;2022-11-02T04:26:42;9.60;99.90
37378;DHT22;23248;48.120;14.854;2022-11-02T04:29:07;9.50;99.90
37378;DHT22;23248;48.120;14.854;2022-11-02T04:31:33;9.50;99.90
37378;DHT22;23248;48.120;14.854;2022-11-02T04:33:59;9.30;99.90
37378;DHT22;23248;48.120;14.854;2022-11-02T04:36:25;9.20;99.90
37378;DHT22;23248;48.120;14.854;2022-11-02T04:38:52;9.20;99.90
37378;DHT22;23248;48.120;14.854;2022-11-02T04:41:19;9.10;99.90
37378;DHT22;23248;48.120;14.854;2022-11-02T04:44:03;9.00;99.90
37378;DHT22;23248;48.120;14.854;2022-11-02T04:46:30;8.90;99.90
37378;DHT22;23248;48.120;14.854;2022-11-02T04:48:56;8.90;99.90
37378;DHT22;23248;48.120;14.854;2022-11-02T04:51:22;8.90;99.90
37378;DHT22;23248;48.120;14.854;2022-11-02T04:53:48;8.90;99.90
37378;DHT22;23248;48.120;14.854;2022-11-02T04:56:14;8.80;99.90
37378;DHT22;23248;48.120;14.854;2022-11-02T04:58:39;8.80;99.90
37378;DHT22;23248;48.120;14.854;2022-11-02T05:01:10;8.80;99.90
37378;DHT22;23248;48.120;14.854;2022-11-02T05:03:36;8.70;99.90
37378;DHT22;23248;48.120;14.854;2022-11-02T05:06:02;8.70;99.90
37378;DHT22;23248;48.120;14.854;2022-11-02T05:08:28;8.80;99.90
37378;DHT22;23248;48.120;14.854;2022-11-02T05:10:54;8.80;99.90
37378;DHT22;23248;48.120;14.854;2022-11-02T05:13:21;8.80;99.90
37378;DHT22;23248;48.120;14.854;2022-11-02T05:15:46;8.80;99.90
37378;DHT22;23248;48.120;14.854;2022-11-02T05:18:12;8.90;99.90
37378;DHT22;23248;48.120;14.854;2022-11-02T05:20:37;8.80;99.90
37378;DHT22;23248;48.120;14.854;2022-11-02T05:23:03;8.80;99.90
37378;DHT22;23248;48.120;14.854;2022-11-02T05:25:30;8.80;99.90
37378;DHT22;23248;48.120;14.854;2022-11-02T05:27:56;8.80;99.90
37378;DHT22;23248;48.120;14.854;2022-11-02T05:30:22;8.90;99.90
37378;DHT22;23248;48.120;14.854;2022-11-02T05:32:47;9.00;99.90
37378;DHT22;23248;48.120;14.854;2022-11-02T05:35:13;9.10;99.90
37378;DHT22;23248;48.120;14.854;2022-11-02T05:37:38;9.10;99.90
37378;DHT22;23248;48.120;14.854;2022-11-02T05:40:04;9.20;99.90
37378;DHT22;23248;48.120;14.854;2022-11-02T05:42:30;9.30;99.90
37378;DHT22;23248;48.120;14.854;2022-11-02T05:44:55;9.30;99.90
37378;DHT22;23248;48.120;14.854;2022-11-02T05:47:21;9.40;99.90
37378;DHT22;23248;48.120;14.854;2022-11-02T05:49:47;9.40;99.90
37378;DHT22;23248;48.120;14.854;2022-11-02T05:52:12;9.50;99.90
37378;DHT22;23248;48.120;14.854;2022-11-02T05:54:38;9.50;99.90
37378;DHT22;23248;48.120;14.854;2022-11-02T05:57:03;9.50;99.90
37378;DHT22;23248;48.120;14.854;2022-11-02T05:59:29;9.60;99.90
37378;DHT22;23248;48.120;14.854;2022-11-02T06:01:55;9.60;99.90
37378;DHT22;23248;48.120;14.854;2022-11-02T06:04:20;9.70;99.90
37378;DHT22;23248;48.120;14.854;2022-11-02T06:06:46;9.60;99.90
37378;DHT22;23248;48.120;14.854;2022-11-02T06:09:11;9.70;99.90
37378;DHT22;23248;48.120;14.854;2022-11-02T06:11:37;9.70;99.90
37378;DHT22;23248;48.120;14.854;2022-11-02T06:14:03;9.60;99.90
37378;DHT22;23248;48.120;14.854;2022-11-02T06:16:28;9.70;99.90
37378;DHT22;23248;48.120;14.854;2022-11-02T06:18:54;9.80;99.90
37378;DHT22;23248;48.120;14.854;2022-11-02T06:21:20;9.80;99.90
37378;DHT22;23248;48.120;14.854;2022-11-02T06:23:46;9.90;99.90
37378;DHT22;23248;48.120;14.854;2022-11-02T06:26:12;10.00;99.90
37378;DHT22;23248;48.120;14.854;2022-11-02T06:28:38;10.00;99.90
37378;DHT22;23248;48.120;14.854;2022-11-02T06:31:03;10.00;99.90
37378;DHT22;23248;48.120;14.854;2022-11-02T06:33:29;10.10;99.90
37378;DHT22;23248;48.120;14.854;2022-11-02T06:35:55;10.10;99.90
37378;DHT22;23248;48.120;14.854;2022-11-02T06:38:20;10.20;99.90
37378;DHT22;23248;48.120;14.854;2022-11-02T06:40:56;10.30;99.90
37378;DHT22;23248;48.120;14.854;2022-11-02T06:43:22;10.30;99.90
37378;DHT22;23248;48.120;14.854;2022-11-02T06:45:47;10.20;99.90
37378;DHT22;23248;48.120;14.854;2022-11-02T06:48:13;10.20;99.90
37378;DHT22;23248;48.120;14.854;2022-11-02T06:50:39;10.20;99.90
37378;DHT22;23248;48.120;14.854;2022-11-02T06:53:04;10.20;99.90
37378;DHT22;23248;48.120;14.854;2022-11-02T06:55:30;10.30;99.90
37378;DHT22;23248;48.120;14.854;2022-11-02T06:57:55;10.30;99.90
37378;DHT22;23248;48.120;14.854;2022-11-02T07:00:21;10.40;99.90
37378;DHT22;23248;48.120;14.854;2022-11-02T07:03:08;10.40;99.90
37378;DHT22;23248;48.120;14.854;2022-11-02T07:05:34;10.50;99.90
37378;DHT22;23248;48.120;14.854;2022-11-02T07:07:59;10.60;99.90
37378;DHT22;23248;48.120;14.854;2022-11-02T07:10:25;10.70;99.90
37378;DHT22;23248;48.120;14.854;2022-11-02T07:12:52;10.70;99.90
37378;DHT22;23248;48.120;14.854;2022-11-02T07:15:20;10.70;99.90
37378;DHT22;23248;48.120;14.854;2022-11-02T07:17:45;10.70;99.90
37378;DHT22;23248;48.120;14.854;2022-11-02T07:20:11;10.70;99.90
37378;DHT22;23248;48.120;14.854;2022-11-02T07:22:37;10.60;99.90
37378;DHT22;23248;48.120;14.854;2022-11-02T07:25:03;10.70;99.90
37378;DHT22;23248;48.120;14.854;2022-11-02T07:27:29;10.70;99.90
37378;DHT22;23248;48.120;14.854;2022-11-02T07:29:54;10.70;99.90
37378;DHT22;23248;48.120;14.854;2022-11-02T07:32:20;10.80;99.90
37378;DHT22;23248;48.120;14.854;2022-11-02T07:34:45;10.80;99.90
37378;DHT22;23248;48.120;14.854;2022-11-02T07:37:11;10.90;99.90
37378;DHT22;23248;48.120;14.854;2022-11-02T07:39:36;11.00;99.90
37378;DHT22;23248;48.120;14.854;2022-11-02T07:42:02;11.10;99.90
37378;DHT22;23248;48.120;14.854;2022-11-02T07:44:28;11.20;99.90
37378;DHT22;23248;48.120;14.854;2022-11-02T07:46:55;11.20;99.90
37378;DHT22;23248;48.120;14.854;2022-11-02T07:49:20;11.30;99.90
37378;DHT22;23248;48.120;14.854;2022-11-02T07:51:46;11.40;99.90
37378;DHT22;23248;48.120;14.854;2022-11-02T07:54:12;11.50;99.90
37378;DHT22;23248;48.120;14.854;2022-11-02T07:56:37;11.50;99.90
37378;DHT22;23248;48.120;14.854;2022-11-02T07:59:03;11.50;99.90
37378;DHT22;23248;48.120;14.854;2022-11-02T08:01:28;11.60;99.90
37378;DHT22;23248;48.120;14.854;2022-11-02T08:03:54;11.80;99.90
37378;DHT22;23248;48.120;14.854;2022-11-02T08:06:21;11.90;99.90
37378;DHT22;23248;48.120;14.854;2022-11-02T08:08:46;12.10;99.90
37378;DHT22;23248;48.120;14.854;2022-11-02T08:11:12;12.20;99.90
37378;DHT22;23248;48.120;14.854;2022-11-02T08:13:37;12.30;99.90
37378;DHT22;23248;48.120;14.854;2022-11-02T08:16:03;12.40;99.90
37378;DHT22;23248;48.120;14.854;2022-11-02T08:18:29;12.40;99.90
37378;DHT22;23248;48.120;14.854;2022-11-02T08:20:55;12.40;99.90
37378;DHT22;23248;48.120;14.854;2022-11-02T08:23:21;12.30;99.90
37378;DHT22;23248;48.120;14.854;2022-11-02T08:25:47;12.30;99.90
37378;DHT22;23248;48.120;14.854;2022-11-02T08:28:20;12.20;99.90
37378;DHT22;23248;48.120;14.854;2022-11-02T08:30:46;12.20;99.90
37378;DHT22;23248;48.120;14.854;2022-11-02T08:33:12;12.20;99.90
37378;DHT22;23248;48.120;14.854;2022-11-02T08:35:40;12.20;99.90
37378;DHT22;23248;48.120;14.854;2022-11-02T08:38:06;12.10;99.90
37378;DHT22;23248;48.120;14.854;2022-11-02T08:40:32;12.10;99.90
37378;DHT22;23248;48.120;14.854;2022-11-02T08:42:58;12.00;99.90
37378;DHT22;23248;48.120;14.854;2022-11-02T08:45:24;11.90;99.90
37378;DHT22;23248;48.120;14.854;2022-11-02T08:47:50;11.90;99.90
37378;DHT22;23248;48.120;14.854;2022-11-02T08:50:16;11.90;99.90
37378;DHT22;23248;48.120;14.854;2022-11-02T08:52:41;11.90;99.90
37378;DHT22;23248;48.120;14.854;2022-11-02T08:55:07;12.00;99.90
37378;DHT22;23248;48.120;14.854;2022-11-02T08:57:35;12.00;99.90
37378;DHT22;23248;48.120;14.854;2022-11-02T09:00:08;12.00;99.90
37378;DHT22;23248;48.120;14.854;2022-11-02T09:02:34;12.10;99.90
37378;DHT22;23248;48.120;14.854;2022-11-02T09:05:00;12.20;99.90
37378;DHT22;23248;48.120;14.854;2022-11-02T09:07:25;12.10;99.90
37378;DHT22;23248;48.120;14.854;2022-11-02T09:09:51;12.20;99.90
37378;DHT22;23248;48.120;14.854;2022-11-02T09:12:17;12.30;99.90
37378;DHT22;23248;48.120;14.854;2022-11-02T09:14:42;12.40;99.90
37378;DHT22;23248;48.120;14.854;2022-11-02T09:17:08;12.40;99.90
37378;DHT22;23248;48.120;14.854;2022-11-02T09:19:33;12.40;99.90
37378;DHT22;23248;48.120;14.854;2022-11-02T09:21:59;12.40;99.90
37378;DHT22;23248;48.120;14.854;2022-11-02T09:24:24;12.40;99.90
37378;DHT22;23248;48.120;14.854;2022-11-02T09:26:51;12.40;99.90
37378;DHT22;23248;48.120;14.854;2022-11-02T09:29:16;12.30;99.90
37378;DHT22;23248;48.120;14.854;2022-11-02T09:31:42;12.30;99.90
37378;DHT22;23248;48.120;14.854;2022-11-02T09:34:08;12.40;99.90
37378;DHT22;23248;48.120;14.854;2022-11-02T09:36:33;12.60;99.90
37378;DHT22;23248;48.120;14.854;2022-11-02T09:38:59;12.80;99.90
37378;DHT22;23248;48.120;14.854;2022-11-02T09:46:40;13.00;99.90
37378;DHT22;23248;48.120;14.854;2022-11-02T09:51:34;13.20;99.90
37378;DHT22;23248;48.120;14.854;2022-11-02T09:56:28;13.50;99.90
37378;DHT22;23248;48.120;14.854;2022-11-02T09:59:15;13.40;99.90
37378;DHT22;23248;48.120;14.854;2022-11-02T10:01:44;13.30;99.90
37378;DHT22;23248;48.120;14.854;2022-11-02T10:04:25;13.20;99.90
37378;DHT22;23248;48.120;14.854;2022-11-02T10:06:57;13.20;99.90
37378;DHT22;23248;48.120;14.854;2022-11-02T10:09:46;13.30;99.90
37378;DHT22;23248;48.120;14.854;2022-11-02T10:12:13;13.40;99.90
37378;DHT22;23248;48.120;14.854;2022-11-02T10:17:35;13.30;99.90
37378;DHT22;23248;48.120;14.854;2022-11-02T10:20:04;13.30;99.90
37378;DHT22;23248;48.120;14.854;2022-11-02T10:22:32;13.20;99.90
37378;DHT22;23248;48.120;14.854;2022-11-02T10:24:59;13.10;99.90
37378;DHT22;23248;48.120;14.854;2022-11-02T10:27:29;13.00;99.90
37378;DHT22;23248;48.120;14.854;2022-11-02T10:30:02;12.90;99.90
37378;DHT22;23248;48.120;14.854;2022-11-02T10:32:29;12.90;99.90
37378;DHT22;23248;48.120;14.854;2022-11-02T10:34:56;12.90;99.90
37378;DHT22;23248;48.120;14.854;2022-11-02T10:40:13;13.00;99.90
37378;DHT22;23248;48.120;14.854;2022-11-02T10:47:49;13.10;99.90
37378;DHT22;23248;48.120;14.854;2022-11-02T10:50:31;13.00;99.90
37378;DHT22;23248;48.120;14.854;2022-11-02T10:52:59;13.10;99.90
37378;DHT22;23248;48.120;14.854;2022-11-02T10:55:28;13.20;99.90
37378;DHT22;23248;48.120;14.854;2022-11-02T10:57:55;13.30;99.90
37378;DHT22;23248;48.120;14.854;2022-11-02T11:00:27;13.30;99.90
37378;DHT22;23248;48.120;14.854;2022-11-02T11:03:02;13.40;99.90
37378;DHT22;23248;48.120;14.854;2022-11-02T11:05:28;13.50;99.90
37378;DHT22;23248;48.120;14.854;2022-11-02T11:07:53;13.70;99.90
37378;DHT22;23248;48.120;14.854;2022-11-02T11:10:20;13.80;99.90
37378;DHT22;23248;48.120;14.854;2022-11-02T11:12:47;13.80;99.90
37378;DHT22;23248;48.120;14.854;2022-11-02T11:15:21;13.90;99.90
37378;DHT22;23248;48.120;14.854;2022-11-02T11:17:47;13.90;99.90
37378;DHT22;23248;48.120;14.854;2022-11-02T11:25:32;14.50;99.90
37378;DHT22;23248;48.120;14.854;2022-11-02T11:27:58;14.90;99.90
37378;DHT22;23248;48.120;14.854;2022-11-02T11:32:52;15.20;99.90
37378;DHT22;23248;48.120;14.854;2022-11-02T11:35:18;15.40;99.90
37378;DHT22;23248;48.120;14.854;2022-11-02T11:37:48;15.60;99.90
37378;DHT22;23248;48.120;14.854;2022-11-02T11:40:16;15.80;99.90
37378;DHT22;23248;48.120;14.854;2022-11-02T11:42:43;15.80;99.90
37378;DHT22;23248;48.120;14.854;2022-11-02T11:45:28;16.00;99.90
37378;DHT22;23248;48.120;14.854;2022-11-02T11:47:55;16.00;99.90
37378;DHT22;23248;48.120;14.854;2022-11-02T11:50:23;16.00;99.90
37378;DHT22;23248;48.120;14.854;2022-11-02T11:55:33;16.10;99.90
37378;DHT22;23248;48.120;14.854;2022-11-02T12:00:43;16.30;99.90
37378;DHT22;23248;48.120;14.854;2022-11-02T12:03:09;16.40;99.90
37378;DHT22;23248;48.120;14.854;2022-11-02T12:06:01;16.60;99.90
37378;DHT22;23248;48.120;14.854;2022-11-02T12:19:08;17.10;99.90
37378;DHT22;23248;48.120;14.854;2022-11-02T12:29:19;17.00;99.90
37378;DHT22;23248;48.120;14.854;2022-11-02T12:31:50;17.10;99.90
37378;DHT22;23248;48.120;14.854;2022-11-02T12:39:41;17.20;99.90
37378;DHT22;23248;48.120;14.854;2022-11-02T12:47:20;17.10;99.90
37378;DHT22;23248;48.120;14.854;2022-11-02T12:52:37;17.20;99.90
37378;DHT22;23248;48.120;14.854;2022-11-02T12:55:11;17.40;99.90
37378;DHT22;23248;48.120;14.854;2022-11-02T12:57:38;17.50;99.90
37378;DHT22;23248;48.120;14.854;2022-11-02T13:00:22;17.60;99.90
37378;DHT22;23248;48.120;14.854;2022-11-02T13:05:31;17.50;99.90
37378;DHT22;23248;48.120;14.854;2022-11-02T13:08:01;17.60;99.90
37378;DHT22;23248;48.120;14.854;2022-11-02T13:10:32;17.50;99.90
37378;DHT22;23248;48.120;14.854;2022-11-02T13:12:59;17.30;99.90
37378;DHT22;23248;48.120;14.854;2022-11-02T13:15:25;16.90;99.90
37378;DHT22;23248;48.120;14.854;2022-11-02T13:17:53;16.60;99.90
37378;DHT22;23248;48.120;14.854;2022-11-02T13:20:21;16.50;99.90
37378;DHT22;23248;48.120;14.854;2022-11-02T13:22:50;16.50;99.90
37378;DHT22;23248;48.120;14.854;2022-11-02T13:25:19;16.50;99.90
37378;DHT22;23248;48.120;14.854;2022-11-02T13:27:51;16.60;99.90
37378;DHT22;23248;48.120;14.854;2022-11-02T13:30:18;16.60;99.90
37378;DHT22;23248;48.120;14.854;2022-11-02T13:32:50;16.40;99.90
37378;DHT22;23248;48.120;14.854;2022-11-02T13:38:43;16.30;99.90
37378;DHT22;23248;48.120;14.854;2022-11-02T13:51:54;16.60;99.90
37378;DHT22;23248;48.120;14.854;2022-11-02T13:54:43;16.70;99.90
37378;DHT22;23248;48.120;14.854;2022-11-02T13:59:54;16.50;99.90
37378;DHT22;23248;48.120;14.854;2022-11-02T14:02:21;16.50;99.90
37378;DHT22;23248;48.120;14.854;2022-11-02T14:04:48;16.40;99.90
37378;DHT22;23248;48.120;14.854;2022-11-02T14:07:24;16.40;99.90
37378;DHT22;23248;48.120;14.854;2022-11-02T14:12:54;16.10;99.90
37378;DHT22;23248;48.120;14.854;2022-11-02T14:28:42;15.90;99.90
37378;DHT22;23248;48.120;14.854;2022-11-02T14:36:04;15.70;99.90
37378;DHT22;23248;48.120;14.854;2022-11-02T14:38:36;15.70;99.90
37378;DHT22;23248;48.120;14.854;2022-11-02T14:46:28;15.60;99.90
37378;DHT22;23248;48.120;14.854;2022-11-02T14:48:57;15.50;99.90
37378;DHT22;23248;48.120;14.854;2022-11-02T14:51:34;15.40;99.90
37378;DHT22;23248;48.120;14.854;2022-11-02T14:54:03;15.30;99.90
37378;DHT22;23248;48.120;14.854;2022-11-02T14:59:43;15.10;99.90
37378;DHT22;23248;48.120;14.854;2022-11-02T15:04:50;14.90;99.90
37378;DHT22;23248;48.120;14.854;2022-11-02T15:07:20;14.70;99.90
37378;DHT22;23248;48.120;14.854;2022-11-02T15:09:59;14.50;99.90
37378;DHT22;23248;48.120;14.854;2022-11-02T15:12:35;14.40;99.90
37378;DHT22;23248;48.120;14.854;2022-11-02T15:17:57;14.20;99.90
37378;DHT22;23248;48.120;14.854;2022-11-02T15:20:24;14.10;99.90
37378;DHT22;23248;48.120;14.854;2022-11-02T15:23:10;14.00;99.90
37378;DHT22;23248;48.120;14.854;2022-11-02T15:25:40;13.80;99.90
37378;DHT22;23248;48.120;14.854;2022-11-02T15:28:10;13.70;99.90
37378;DHT22;23248;48.120;14.854;2022-11-02T15:31:18;13.70;99.90
37378;DHT22;23248;48.120;14.854;2022-11-02T15:35:58;13.50;99.90
37378;DHT22;23248;48.120;14.854;2022-11-02T15:38:27;13.40;99.90
37378;DHT22;23248;48.120;14.854;2022-11-02T15:41:15;13.30;99.90
37378;DHT22;23248;48.120;14.854;2022-11-02T15:52:05;13.00;99.90
37378;DHT22;23248;48.120;14.854;2022-11-02T15:54:51;12.90;99.90
37378;DHT22;23248;48.120;14.854;2022-11-02T15:59:57;12.80;99.90
37378;DHT22;23248;48.120;14.854;2022-11-02T16:02:26;12.70;99.90
37378;DHT22;23248;48.120;14.854;2022-11-02T16:04:56;12.60;99.90
37378;DHT22;23248;48.120;14.854;2022-11-02T16:07:23;12.40;99.90
37378;DHT22;23248;48.120;14.854;2022-11-02T16:09:48;12.30;99.90
37378;DHT22;23248;48.120;14.854;2022-11-02T16:12:20;12.20;99.90
37378;DHT22;23248;48.120;14.854;2022-11-02T16:15:07;12.20;99.90
37378;DHT22;23248;48.120;14.854;2022-11-02T16:17:33;12.10;99.90
37378;DHT22;23248;48.120;14.854;2022-11-02T16:20:09;12.00;99.90
37378;DHT22;23248;48.120;14.854;2022-11-02T16:22:35;12.00;99.90
37378;DHT22;23248;48.120;14.854;2022-11-02T16:25:06;11.80;99.90
37378;DHT22;23248;48.120;14.854;2022-11-02T16:27:36;11.80;99.90
37378;DHT22;23248;48.120;14.854;2022-11-02T16:30:03;11.70;99.90
37378;DHT22;23248;48.120;14.854;2022-11-02T16:32:29;11.60;99.90
37378;DHT22;23248;48.120;14.854;2022-11-02T16:34:55;11.60;99.90
37378;DHT22;23248;48.120;14.854;2022-11-02T16:37:22;11.50;99.90
37378;DHT22;23248;48.120;14.854;2022-11-02T16:39:48;11.40;99.90
37378;DHT22;23248;48.120;14.854;2022-11-02T16:42:21;11.30;99.90
37378;DHT22;23248;48.120;14.854;2022-11-02T16:44:57;11.20;99.90
37378;DHT22;23248;48.120;14.854;2022-11-02T16:47:27;11.20;99.90
37378;DHT22;23248;48.120;14.854;2022-11-02T16:54:45;11.10;99.90
37378;DHT22;23248;48.120;14.854;2022-11-02T16:59:37;11.00;99.90
37378;DHT22;23248;48.120;14.854;2022-11-02T17:02:09;10.90;99.90
37378;DHT22;23248;48.120;14.854;2022-11-02T17:04:38;10.90;99.90
37378;DHT22;23248;48.120;14.854;2022-11-02T17:07:22;10.90;99.90
37378;DHT22;23248;48.120;14.854;2022-11-02T17:09:53;10.90;99.90
37378;DHT22;23248;48.120;14.854;2022-11-02T17:12:21;10.90;99.90
37378;DHT22;23248;48.120;14.854;2022-11-02T17:14:48;10.80;99.90
37378;DHT22;23248;48.120;14.854;2022-11-02T17:19:53;10.80;99.90
37378;DHT22;23248;48.120;14.854;2022-11-02T17:24:46;10.90;99.90
37378;DHT22;23248;48.120;14.854;2022-11-02T17:27:30;10.90;99.90
37378;DHT22;23248;48.120;14.854;2022-11-02T17:29:57;10.90;99.90
37378;DHT22;23248;48.120;14.854;2022-11-02T17:32:23;10.90;99.90
37378;DHT22;23248;48.120;14.854;2022-11-02T17:34:53;10.80;99.90
37378;DHT22;23248;48.120;14.854;2022-11-02T17:37:20;10.80;99.90
37378;DHT22;23248;48.120;14.854;2022-11-02T17:39:47;10.70;99.90
37378;DHT22;23248;48.120;14.854;2022-11-02T17:42:12;10.90;99.90
37378;DHT22;23248;48.120;14.854;2022-11-02T17:44:57;11.00;99.90
37378;DHT22;23248;48.120;14.854;2022-11-02T17:47:23;11.00;99.90
37378;DHT22;23248;48.120;14.854;2022-11-02T17:49:49;11.00;99.90
37378;DHT22;23248;48.120;14.854;2022-11-02T17:52:15;10.90;99.90
37378;DHT22;23248;48.120;14.854;2022-11-02T17:54:41;10.80;99.90
37378;DHT22;23248;48.120;14.854;2022-11-02T17:57:13;10.70;99.90
37378;DHT22;23248;48.120;14.854;2022-11-02T17:59:39;10.70;99.90
37378;DHT22;23248;48.120;14.854;2022-11-02T18:02:12;10.70;99.90
37378;DHT22;23248;48.120;14.854;2022-11-02T18:04:37;10.60;99.90
37378;DHT22;23248;48.120;14.854;2022-11-02T18:07:03;10.60;99.90
37378;DHT22;23248;48.120;14.854;2022-11-02T18:09:29;10.60;99.90